General Aviation Weather

Text Reports

Enter one or more of the following location identifiers separated by a space:

Zip Code, Four-Character ICAO or Three-Character IATA airport codes.

METAR - Aviation Routine Weather Report
KGEZ - Shelbyville, Indiana
Updated at 3:53 PM GMT on July 30, 2016 (11:53 AM EDT):
METAR KGEZ 301553Z AUTO 26009KT 10SM SCT028 BKN036 28/20 A2997 RMK AO2 SLP141 T02780200
TAF - Terminal Area Forecast
KGEZ - Shelbyville, Indiana
Updated at 3:53 PM GMT on July 30, 2016 (11:53 AM EDT):
No TAF is currently available for this location.
Decoded:
No decoded TAF is available.
PIREP - Pilot Weather Report
KGEZ - Shelbyville, Indiana
Updated at 3:53 PM GMT on July 30, 2016 (11:53 AM EDT):
No PIREP is currently available for this location.
AIRMET - Airmens Meteorological Information
KGEZ - Shelbyville, Indiana
Updated at 3:53 PM GMT on July 30, 2016 (11:53 AM EDT):
No AIRMET is currently available for this location.
SIGMET - Significant Meteorological Information
KGEZ - Shelbyville, Indiana
Updated at 3:53 PM GMT on July 30, 2016 (11:53 AM EDT):
No SIGMET is currently available for this location.
NOTAM - Notice to Airmen
KGEZ - Shelbyville, Indiana
Updated at 3:53 PM GMT on July 30, 2016 (11:53 AM EDT):
No NOTAM is currently available for this location.
Forecast Area
KGEZ - Shelbyville, Indiana
Updated at 3:53 PM GMT on July 30, 2016 (11:53 AM EDT):
No NOTAM is currently available for this location.
Aviation Weather Maps